Time;durP1;ratioP1;P1;durP2;ratioP2;P2;SDS_P1;SDS_P2;PMS_P1;PMS_P2;Temp;Humidity;BMP_temperature;BMP_pressure;BME280_temperature;BME280_humidity;BME280_pressure;Samples;Min_cycle;Max_cycle;Signal;HPM_P1;HPM_P2
2021/06/23 02:47:40;;;;;;;4.95;4.65;;;19.50;99.90;;;;;;5228938;23;88199;-82
2021/06/23 02:50:07;;;;;;;3.33;3.03;;;18.90;99.90;;;;;;4898802;28;86188;-81
2021/06/23 02:52:35;;;;;;;3.53;3.20;;;18.80;99.90;;;;;;4883806;28;89200;-81
2021/06/23 02:55:02;;;;;;;3.50;3.20;;;18.70;99.90;;;;;;4878909;28;87444;-81
2021/06/23 02:57:28;;;;;;;4.32;3.33;;;18.70;99.90;;;;;;4895494;28;87905;-80
2021/06/23 02:59:55;;;;;;;3.45;3.15;;;18.60;99.90;;;;;;4893011;28;86961;-82
2021/06/23 03:02:20;;;;;;;3.47;3.17;;;18.60;99.90;;;;;;4881463;28;87491;-82
2021/06/23 03:04:48;;;;;;;5.15;3.53;;;18.60;99.90;;;;;;4875891;28;87381;-82
2021/06/23 03:07:15;;;;;;;4.28;3.00;;;18.60;99.90;;;;;;4889421;28;86253;-82
2021/06/23 03:09:43;;;;;;;3.65;3.35;;;18.60;99.90;;;;;;4892324;28;86943;-83
2021/06/23 03:12:13;;;;;;;4.13;3.33;;;18.50;99.90;;;;;;4880657;28;87138;-81
2021/06/23 03:14:39;;;;;;;3.60;3.30;;;18.50;99.90;;;;;;4896948;28;86929;-82
2021/06/23 03:17:05;;;;;;;3.35;3.10;;;18.40;99.90;;;;;;4894743;28;86863;-83
2021/06/23 03:19:31;;;;;;;3.45;3.15;;;18.40;99.90;;;;;;4896065;28;86941;-82
2021/06/23 03:22:02;;;;;;;3.70;3.40;;;18.40;99.90;;;;;;4881420;28;88499;-82
2021/06/23 03:24:27;;;;;;;;;;;18.40;99.90;;;;;;4883822;28;87090;-82
2021/06/23 03:26:53;;;;;;;3.50;3.20;;;18.30;99.90;;;;;;4899559;28;86935;-81
2021/06/23 03:29:30;;;;;;;5.72;4.00;;;18.30;99.90;;;;;;4884827;28;86445;-83
2021/06/23 03:31:57;;;;;;;4.05;3.58;;;18.40;99.90;;;;;;4901120;28;86585;-82
2021/06/23 03:34:24;;;;;;;3.50;3.20;;;18.40;99.90;;;;;;4899577;28;86714;-82
2021/06/23 03:36:50;;;;;;;4.60;3.55;;;18.40;99.90;;;;;;4899846;28;88290;-84
2021/06/23 03:39:16;;;;;;;4.53;3.90;;;18.40;99.90;;;;;;4882657;28;85591;-83
2021/06/23 03:41:41;;;;;;;4.45;4.05;;;18.40;99.90;;;;;;4899243;28;86793;-81
2021/06/23 03:44:07;;;;;;;4.50;3.97;;;18.40;99.90;;;;;;4897091;28;86839;-81
2021/06/23 03:46:59;;;;;;;3.95;3.55;;;18.40;99.90;;;;;;4892921;28;87931;-83
2021/06/23 03:49:24;;;;;;;3.42;3.13;;;18.20;99.90;;;;;;4857069;29;89943;-86
2021/06/23 03:51:51;;;;;;;6.78;3.75;;;18.30;99.90;;;;;;4855884;29;87272;-84
2021/06/23 03:54:16;;;;;;;4.07;3.50;;;18.20;99.90;;;;;;4846266;29;87010;-86
2021/06/23 03:56:42;;;;;;;6.43;3.60;;;18.20;99.90;;;;;;4848196;29;86938;-84
2021/06/23 03:59:08;;;;;;;4.50;3.05;;;18.20;99.90;;;;;;4848007;29;86798;-85
2021/06/23 04:01:34;;;;;;;5.85;3.13;;;18.10;99.90;;;;;;4855335;29;87157;-84
2021/06/23 04:04:00;;;;;;;5.93;4.85;;;;;;;;;;4850477;29;90354;-85
2021/06/23 04:06:28;;;;;;;5.20;3.42;;;17.90;99.90;;;;;;4862174;29;86144;-87
2021/06/23 04:08:54;;;;;;;7.07;3.28;;;17.90;99.90;;;;;;4868087;28;86528;-86
2021/06/23 04:11:19;;;;;;;5.32;4.82;;;18.00;99.90;;;;;;4861118;29;87417;-85
2021/06/23 04:13:45;;;;;;;3.83;3.42;;;17.80;99.90;;;;;;4865768;28;87110;-83
2021/06/23 04:16:12;;;;;;;4.82;4.43;;;17.70;99.90;;;;;;4860073;28;86228;-86
2021/06/23 04:18:38;;;;;;;10.30;4.85;;;17.80;99.90;;;;;;4864227;28;86344;-86
2021/06/23 04:21:04;;;;;;;5.93;3.83;;;17.90;99.90;;;;;;4868005;29;86731;-83
2021/06/23 04:23:30;;;;;;;6.55;4.63;;;;;;;;;;4869050;29;86247;-81
2021/06/23 04:25:56;;;;;;;4.57;3.38;;;17.70;99.90;;;;;;4868689;28;88081;-82
2021/06/23 04:28:22;;;;;;;5.57;5.00;;;;;;;;;;4862786;28;85453;-84
2021/06/23 04:30:48;;;;;;;4.63;3.55;;;17.60;99.90;;;;;;4873906;28;86684;-82
2021/06/23 04:33:14;;;;;;;7.18;5.10;;;18.10;99.90;;;;;;4870106;29;86916;-85
2021/06/23 04:35:40;;;;;;;4.28;3.38;;;17.70;99.90;;;;;;4891187;28;87176;-85
2021/06/23 04:38:06;;;;;;;5.57;5.03;;;;;;;;;;4861272;29;86390;-85
2021/06/23 04:40:32;;;;;;;7.40;5.07;;;;;;;;;;4856443;29;86413;-81
2021/06/23 04:42:58;;;;;;;7.30;4.03;;;17.60;99.90;;;;;;4868988;29;87139;-81
2021/06/23 04:45:24;;;;;;;9.63;5.85;;;17.50;99.90;;;;;;4864740;28;86260;-85
2021/06/23 04:47:50;;;;;;;7.35;5.65;;;;;;;;;;4878896;28;86378;-81
2021/06/23 04:50:16;;;;;;;6.47;5.88;;;17.50;99.90;;;;;;4910822;28;86545;-84
2021/06/23 04:52:42;;;;;;;6.22;5.53;;;17.50;99.90;;;;;;4904569;28;86315;-82
2021/06/23 04:55:08;;;;;;;6.53;5.82;;;18.10;99.90;;;;;;4898355;28;89989;-83
2021/06/23 04:57:34;;;;;;;7.30;5.95;;;17.70;99.90;;;;;;4912121;28;86039;-79
2021/06/23 05:00:00;;;;;;;4.65;3.90;;;17.70;99.90;;;;;;4910579;28;88224;-81
2021/06/23 05:09:10;;;;;;;6.65;4.72;;;18.00;99.90;;;;;;4906157;28;86151;-82
2021/06/23 05:11:36;;;;;;;5.60;5.20;;;;;;;;;;4912528;28;87500;-82
2021/06/23 05:14:02;;;;;;;5.90;5.30;;;17.90;99.90;;;;;;4912571;28;87332;-80
2021/06/23 05:16:29;;;;;;;5.95;5.45;;;18.00;99.90;;;;;;4910063;28;86241;-79
2021/06/23 05:22:17;;;;;;;6.18;5.47;;;18.20;99.90;;;;;;4907054;28;86262;-83
2021/06/23 05:25:05;;;;;;;6.55;3.97;;;18.20;99.90;;;;;;4910854;28;87083;-84
2021/06/23 05:30:56;;;;;;;6.57;3.75;;;18.40;99.90;;;;;;4909393;28;85962;-80
2021/06/23 05:33:22;;;;;;;4.28;3.72;;;18.60;99.90;;;;;;4908822;28;87480;-81
2021/06/23 05:35:47;;;;;;;3.70;3.35;;;18.80;99.90;;;;;;4899293;28;86831;-82
2021/06/23 05:38:14;;;;;;;3.30;3.00;;;19.10;99.90;;;;;;4898302;28;86225;-81
2021/06/23 05:40:41;;;;;;;4.00;2.58;;;19.30;99.90;;;;;;4908278;28;86263;-80
2021/06/23 05:43:07;;;;;;;2.97;2.78;;;19.50;99.90;;;;;;4912275;28;86559;-81
2021/06/23 05:45:32;;;;;;;2.95;2.67;;;19.70;99.90;;;;;;4912570;28;87351;-81
2021/06/23 05:47:58;;;;;;;3.10;2.80;;;19.80;99.90;;;;;;4909896;28;86146;-82
2021/06/23 05:50:24;;;;;;;3.80;2.90;;;19.90;99.90;;;;;;4904118;28;86822;-81
2021/06/23 05:52:50;;;;;;;4.50;4.10;;;;;;;;;;4889865;28;88167;-81
2021/06/23 05:55:21;;;;;;;4.15;3.10;;;19.90;99.90;;;;;;4886800;28;87256;-81
2021/06/23 05:57:56;;;;;;;5.60;3.30;;;19.90;99.90;;;;;;4883689;28;87777;-83
2021/06/23 06:00:24;;;;;;;2.95;2.70;;;20.00;99.90;;;;;;4887306;28;87326;-81
2021/06/23 06:02:50;;;;;;;3.95;3.00;;;20.00;99.90;;;;;;4879921;28;87017;-84
2021/06/23 06:05:16;;;;;;;3.20;2.90;;;20.10;99.90;;;;;;4894031;28;87116;-83
2021/06/23 06:07:42;;;;;;;2.92;2.60;;;20.30;99.90;;;;;;4883434;28;86770;-83
2021/06/23 06:10:09;;;;;;;3.28;2.90;;;20.40;99.90;;;;;;4897291;28;86408;-81
2021/06/23 06:12:35;;;;;;;2.83;2.63;;;20.50;99.90;;;;;;4893060;28;89024;-81
2021/06/23 06:15:01;;;;;;;3.13;2.60;;;20.50;99.90;;;;;;4897815;28;88733;-81
2021/06/23 06:17:26;;;;;;;3.25;3.05;;;20.50;99.90;;;;;;4894268;28;88874;-83
2021/06/23 06:19:52;;;;;;;3.28;3.00;;;20.50;99.90;;;;;;4892877;28;86953;-83
2021/06/23 06:22:18;;;;;;;3.05;2.83;;;20.40;99.90;;;;;;4896109;28;86906;-83
2021/06/23 06:24:44;;;;;;;3.53;3.22;;;20.40;99.90;;;;;;4895981;28;86984;-83
2021/06/23 06:27:10;;;;;;;3.13;2.90;;;20.50;99.90;;;;;;4896940;28;87042;-82
2021/06/23 06:29:35;;;;;;;3.20;2.90;;;20.50;99.90;;;;;;4892483;28;86997;-82
2021/06/23 06:32:01;;;;;;;4.50;3.00;;;20.50;99.90;;;;;;4896328;28;87062;-82
2021/06/23 06:34:27;;;;;;;3.22;3.00;;;20.50;99.90;;;;;;4893668;28;86838;-82
2021/06/23 06:36:52;;;;;;;3.53;3.22;;;20.50;99.90;;;;;;4893929;28;86893;-81
2021/06/23 06:39:18;;;;;;;4.10;3.80;;;20.70;99.90;;;;;;4896838;28;87026;-81
2021/06/23 06:41:44;;;;;;;4.45;3.45;;;20.80;99.90;;;;;;4889778;28;88341;-83
2021/06/23 06:44:10;;;;;;;3.53;3.22;;;20.90;99.90;;;;;;4893344;28;88746;-82
2021/06/23 06:46:37;;;;;;;3.90;3.60;;;20.90;99.90;;;;;;4892678;28;86987;-82
2021/06/23 06:49:03;;;;;;;3.38;3.08;;;20.90;99.90;;;;;;4894889;28;87013;-84
2021/06/23 06:51:30;;;;;;;4.43;2.95;;;20.80;99.90;;;;;;4892672;28;86762;-84
2021/06/23 06:53:55;;;;;;;3.70;3.15;;;21.00;99.90;;;;;;4890776;28;86222;-84
2021/06/23 06:56:21;;;;;;;3.22;3.03;;;21.10;99.90;;;;;;4895065;28;86908;-83
2021/06/23 06:58:47;;;;;;;3.55;3.25;;;21.20;99.90;;;;;;4897393;28;85526;-82
2021/06/23 07:01:12;;;;;;;3.75;3.45;;;21.10;99.90;;;;;;4892040;28;87222;-82
2021/06/23 07:03:38;;;;;;;3.92;3.63;;;21.00;99.90;;;;;;4896015;28;86993;-83
2021/06/23 07:06:04;;;;;;;3.90;3.60;;;20.90;99.90;;;;;;4896505;28;87834;-82
2021/06/23 07:08:29;;;;;;;4.35;3.90;;;21.00;99.90;;;;;;4896302;28;87566;-81
2021/06/23 07:10:55;;;;;;;3.90;3.50;;;21.00;99.90;;;;;;4891032;28;87018;-84
2021/06/23 07:13:21;;;;;;;4.78;3.67;;;21.10;99.90;;;;;;4885671;28;86898;-81
2021/06/23 07:15:47;;;;;;;4.10;3.80;;;21.10;99.90;;;;;;4889624;28;86992;-82
2021/06/23 07:18:12;;;;;;;4.20;3.90;;;21.10;99.90;;;;;;4892289;28;86793;-82
2021/06/23 07:20:38;;;;;;;3.67;3.38;;;21.20;99.90;;;;;;4895039;28;87297;-81
2021/06/23 07:23:04;;;;;;;4.13;3.80;;;21.30;99.90;;;;;;4892326;28;88064;-81
2021/06/23 07:25:29;;;;;;;4.90;4.40;;;21.30;99.90;;;;;;4895540;28;86961;-84
2021/06/23 07:27:55;;;;;;;4.20;3.90;;;21.30;99.90;;;;;;4895009;28;86498;-81
2021/06/23 07:30:21;;;;;;;3.92;3.40;;;21.30;99.90;;;;;;4890029;28;88660;-82
2021/06/23 07:32:50;;;;;;;3.70;3.40;;;21.40;99.90;;;;;;4892201;28;87682;-83
2021/06/23 07:38:03;;;;;;;4.00;3.70;;;21.60;99.90;;;;;;4888036;28;86949;-82
2021/06/23 07:41:11;;;;;;;4.13;3.72;;;21.50;99.90;;;;;;4897307;28;86999;-83
2021/06/23 07:43:18;;;;;;;3.90;3.50;;;21.60;99.90;;;;;;4884356;28;87958;-84
2021/06/23 07:45:49;;;;;;;3.20;3.00;;;21.80;99.90;;;;;;4885056;28;86950;-81
2021/06/23 07:48:15;;;;;;;;;;;21.90;99.90;;;;;;4885542;28;86067;-82
2021/06/23 07:50:48;;;;;;;3.72;3.42;;;22.10;99.90;;;;;;4891477;28;86988;-83
2021/06/23 07:53:26;;;;;;;3.97;3.60;;;22.20;99.90;;;;;;4899099;28;87122;-82
2021/06/23 08:09:37;;;;;;;3.25;2.55;;;23.60;99.10;;;;;;4892376;28;86939;-83
2021/06/23 08:14:39;;;;;;;3.15;2.95;;;24.70;95.80;;;;;;4896148;28;86870;-83
2021/06/23 08:17:07;;;;;;;2.50;2.30;;;25.10;94.10;;;;;;4891474;28;86810;-83
2021/06/23 08:19:33;;;;;;;5.10;4.60;;;26.00;92.60;;;;;;4887955;29;86425;-83
2021/06/23 08:21:58;;;;;;;4.70;4.30;;;26.10;91.90;;;;;;4884445;28;88226;-84
2021/06/23 08:24:24;;;;;;;5.00;4.60;;;26.10;92.20;;;;;;4890389;28;87906;-83
2021/06/23 08:26:50;;;;;;;4.88;4.47;;;26.80;90.60;;;;;;4894936;28;86831;-84
2021/06/23 08:29:16;;;;;;;3.88;3.30;;;26.70;91.00;;;;;;4900517;28;86866;-83
2021/06/23 08:31:41;;;;;;;4.70;3.20;;;27.00;90.70;;;;;;4900945;28;87277;-84
2021/06/23 08:34:07;;;;;;;5.55;5.20;;;27.30;90.20;;;;;;4894078;28;86932;-84
2021/06/23 08:36:33;;;;;;;5.22;4.90;;;27.30;90.10;;;;;;4895690;28;87042;-84
2021/06/23 08:38:59;;;;;;;4.45;4.15;;;27.30;88.10;;;;;;4887755;28;86031;-83
2021/06/23 08:41:29;;;;;;;4.15;3.40;;;27.10;88.30;;;;;;4900349;28;87429;-84
2021/06/23 08:43:58;;;;;;;6.13;5.53;;;26.90;87.80;;;;;;4899923;28;87621;-84
2021/06/23 08:46:29;;;;;;;5.63;5.22;;;26.80;88.30;;;;;;4887977;28;87167;-85
2021/06/23 08:48:55;;;;;;;;;;;26.70;88.90;;;;;;4899940;28;87108;-84
2021/06/23 08:51:22;;;;;;;4.72;4.43;;;26.60;86.60;;;;;;4896329;28;87014;-84
2021/06/23 08:53:48;;;;;;;5.72;5.20;;;26.40;87.60;;;;;;4895990;28;86848;-84
2021/06/23 08:56:14;;;;;;;5.45;5.03;;;26.40;87.10;;;;;;4902518;28;86735;-83
2021/06/23 08:58:40;;;;;;;5.43;5.05;;;26.20;87.90;;;;;;4900325;28;86977;-83
2021/06/23 09:01:06;;;;;;;5.30;4.90;;;26.40;88.30;;;;;;4890615;28;87100;-84
2021/06/23 09:04:09;;;;;;;5.18;4.82;;;26.30;87.50;;;;;;4890541;28;87558;-83
2021/06/23 09:06:49;;;;;;;4.70;4.40;;;26.60;87.40;;;;;;4899538;28;86894;-82
2021/06/23 09:09:35;;;;;;;4.80;4.50;;;27.10;85.50;;;;;;4897168;28;86979;-84
2021/06/23 09:12:06;;;;;;;5.32;4.93;;;27.70;83.40;;;;;;4886751;28;89502;-82
2021/06/23 09:14:34;;;;;;;4.82;4.53;;;27.90;81.40;;;;;;4894351;28;88212;-83
2021/06/23 09:17:16;;;;;;;4.75;4.45;;;28.20;81.60;;;;;;4897810;28;87097;-83
2021/06/23 09:19:47;;;;;;;4.38;4.05;;;28.40;79.00;;;;;;4900034;28;86818;-85
2021/06/23 09:22:33;;;;;;;4.60;4.30;;;28.50;78.70;;;;;;4901436;28;87457;-84
2021/06/23 09:25:04;;;;;;;4.55;4.35;;;28.90;77.90;;;;;;4900417;28;86928;-85
2021/06/23 09:27:31;;;;;;;4.88;4.57;;;29.10;74.40;;;;;;4891057;28;86959;-84
2021/06/23 09:30:29;;;;;;;4.47;4.28;;;30.60;73.80;;;;;;4890494;28;85907;-84
2021/06/23 09:33:19;;;;;;;4.63;4.40;;;30.70;71.00;;;;;;4887719;28;88485;-84
2021/06/23 09:36:04;;;;;;;4.40;4.10;;;31.20;67.00;;;;;;4892727;28;86841;-85
2021/06/23 09:38:39;;;;;;;4.60;4.32;;;32.20;67.30;;;;;;4897226;28;87876;-82
2021/06/23 09:41:36;;;;;;;4.25;4.03;;;33.60;61.00;;;;;;4889530;28;86855;-82
2021/06/23 09:44:10;;;;;;;4.93;4.55;;;34.60;56.70;;;;;;4880315;28;87551;-84
2021/06/23 09:46:38;;;;;;;5.05;4.65;;;34.90;54.60;;;;;;4891341;28;87622;-83
2021/06/23 09:49:06;;;;;;;5.13;4.82;;;34.90;54.90;;;;;;4883934;28;87307;-85
2021/06/23 09:51:43;;;;;;;4.75;4.45;;;35.50;52.90;;;;;;4901753;28;87384;-84
2021/06/23 09:54:10;;;;;;;5.18;4.88;;;36.20;52.70;;;;;;4900014;28;86716;-84
2021/06/23 09:56:47;;;;;;;5.07;4.78;;;36.90;50.30;;;;;;4890742;28;86432;-83
2021/06/23 09:59:50;;;;;;;4.63;4.32;;;37.20;48.20;;;;;;4884081;28;87050;-82
2021/06/23 10:02:31;;;;;;;5.03;4.72;;;37.80;48.20;;;;;;4854742;28;86890;-83
2021/06/23 10:05:01;;;;;;;5.45;4.95;;;39.00;47.00;;;;;;4890350;28;87749;-81
2021/06/23 10:07:49;;;;;;;4.70;4.40;;;39.60;44.80;;;;;;4895008;28;87190;-82
2021/06/23 10:10:18;;;;;;;9.13;5.97;;;40.30;43.00;;;;;;4880071;28;86872;-82
2021/06/23 10:12:50;;;;;;;5.53;5.15;;;41.10;42.80;;;;;;4878531;28;86969;-81
2021/06/23 10:16:05;;;;;;;5.90;5.40;;;41.90;41.10;;;;;;4894531;28;87233;-82
2021/06/23 10:18:32;;;;;;;5.55;5.28;;;42.90;39.70;;;;;;4881299;28;88376;-83
2021/06/23 10:20:58;;;;;;;5.28;5.07;;;43.50;39.90;;;;;;4881167;28;87002;-83
2021/06/23 10:23:24;;;;;;;3.67;3.47;;;43.80;39.20;;;;;;4881302;28;86257;-82
2021/06/23 10:25:51;;;;;;;6.22;5.82;;;43.90;38.50;;;;;;4880712;28;88568;-83
2021/06/23 10:28:19;;;;;;;5.00;4.80;;;44.10;36.70;;;;;;4883350;28;86692;-81
2021/06/23 10:30:45;;;;;;;6.07;5.77;;;43.60;37.40;;;;;;4891309;28;88385;-81
2021/06/23 10:33:12;;;;;;;6.10;5.70;;;43.70;37.30;;;;;;4878803;28;86614;-83
2021/06/23 10:35:38;;;;;;;5.65;5.32;;;44.30;37.20;;;;;;4886281;28;86950;-82
2021/06/23 10:38:05;;;;;;;6.32;6.03;;;44.30;35.30;;;;;;4884265;28;87135;-84
2021/06/23 10:40:32;;;;;;;6.00;5.70;;;43.50;36.70;;;;;;4891563;28;86641;-82
2021/06/23 10:43:11;;;;;;;5.35;5.15;;;43.50;37.20;;;;;;4894208;28;86691;-82
2021/06/23 10:45:42;;;;;;;6.03;5.72;;;43.80;35.80;;;;;;4896137;28;87294;-82
2021/06/23 10:48:08;;;;;;;5.70;5.50;;;43.80;36.10;;;;;;4892112;28;86951;-83
2021/06/23 10:50:35;;;;;;;5.63;5.35;;;44.10;35.90;;;;;;4891846;28;86923;-82
2021/06/23 10:53:03;;;;;;;5.80;5.50;;;43.60;36.40;;;;;;4893703;28;86789;-83
2021/06/23 10:55:36;;;;;;;6.18;5.78;;;44.10;36.60;;;;;;4894594;28;87958;-83
2021/06/23 10:58:07;;;;;;;5.30;5.10;;;44.90;36.30;;;;;;4890320;28;87437;-83
2021/06/23 11:00:34;;;;;;;5.80;5.50;;;45.70;34.30;;;;;;4888239;28;86917;-83
2021/06/23 11:03:17;;;;;;;7.43;6.25;;;45.40;35.20;;;;;;4890623;28;87843;-82
2021/06/23 11:05:43;;;;;;;6.25;5.85;;;46.00;34.30;;;;;;4890567;28;87385;-82
2021/06/23 11:08:36;;;;;;;6.90;6.50;;;46.20;34.30;;;;;;4893753;28;86938;-82
2021/06/23 11:11:05;;;;;;;6.20;5.90;;;46.80;33.50;;;;;;4890203;28;86776;-82
2021/06/23 11:13:37;;;;;;;6.40;6.10;;;46.90;33.20;;;;;;4888612;28;86183;-81
2021/06/23 11:16:04;;;;;;;6.25;5.95;;;46.80;34.20;;;;;;4882785;28;87270;-82
2021/06/23 11:18:38;;;;;;;6.60;6.30;;;45.90;34.40;;;;;;4906008;28;88375;-82
2021/06/23 11:21:07;;;;;;;6.43;6.13;;;45.80;34.10;;;;;;4897636;28;87631;-82
2021/06/23 11:24:00;;;;;;;6.60;6.20;;;45.70;34.10;;;;;;4885119;28;86735;-82
2021/06/23 11:26:28;;;;;;;6.28;5.90;;;45.90;33.60;;;;;;4880981;28;87588;-84
2021/06/23 11:29:18;;;;;;;7.07;6.65;;;46.50;33.80;;;;;;4895984;28;87259;-83
2021/06/23 11:32:05;;;;;;;7.32;6.85;;;46.70;33.60;;;;;;4889556;28;86712;-82
2021/06/23 11:34:40;;;;;;;6.30;6.00;;;47.10;33.60;;;;;;4886520;28;86916;-83
2021/06/23 11:37:08;;;;;;;6.82;6.53;;;46.80;33.20;;;;;;4896680;28;88338;-83
2021/06/23 11:39:34;;;;;;;6.30;6.00;;;47.00;32.00;;;;;;4896921;28;87385;-82
2021/06/23 11:42:00;;;;;;;6.93;6.53;;;46.60;33.40;;;;;;4897216;28;86689;-83
2021/06/23 11:44:26;;;;;;;6.78;6.38;;;46.20;33.60;;;;;;4897439;28;86976;-83
2021/06/23 11:46:54;;;;;;;6.25;5.95;;;46.00;33.40;;;;;;4896630;28;88186;-82
2021/06/23 11:49:20;;;;;;;5.82;5.63;;;45.70;33.70;;;;;;4896028;28;88313;-83
2021/06/23 11:51:45;;;;;;;6.20;5.80;;;45.60;33.50;;;;;;4896849;28;86987;-82
2021/06/23 11:54:11;;;;;;;6.47;6.07;;;45.50;33.60;;;;;;4895577;28;86911;-83
2021/06/23 11:56:37;;;;;;;5.80;5.60;;;45.50;33.80;;;;;;4894885;28;87426;-84
2021/06/23 11:59:03;;;;;;;5.72;5.50;;;46.00;33.50;;;;;;4892329;28;86914;-82
2021/06/23 12:01:28;;;;;;;6.13;5.85;;;46.00;33.50;;;;;;4890185;28;86692;-82
2021/06/23 12:03:56;;;;;;;6.03;5.72;;;45.90;33.60;;;;;;4887395;28;86228;-82
2021/06/23 12:06:21;;;;;;;5.80;5.50;;;45.40;33.70;;;;;;4892405;28;88111;-82
2021/06/23 12:08:47;;;;;;;6.75;6.40;;;45.50;34.00;;;;;;4890881;28;87325;-82
2021/06/23 12:11:13;;;;;;;6.30;5.97;;;45.50;33.20;;;;;;4890283;28;88103;-82
2021/06/23 12:13:39;;;;;;;6.28;5.97;;;45.40;33.80;;;;;;4894830;28;87960;-82
2021/06/23 12:16:05;;;;;;;6.10;5.80;;;44.90;33.40;;;;;;4894607;28;86991;-82
2021/06/23 12:18:30;;;;;;;5.93;5.60;;;44.60;34.00;;;;;;4893367;28;86220;-83
2021/06/23 12:20:56;;;;;;;5.80;5.50;;;43.90;34.70;;;;;;4894348;28;86835;-82
2021/06/23 12:23:22;;;;;;;5.68;5.38;;;43.80;35.10;;;;;;4897155;28;87468;-83
2021/06/23 12:25:50;;;;;;;5.57;5.38;;;43.30;35.00;;;;;;4893056;28;87311;-84
2021/06/23 12:28:17;;;;;;;5.38;5.18;;;43.30;35.30;;;;;;4898848;28;86264;-84
2021/06/23 12:30:45;;;;;;;5.97;5.68;;;42.90;35.40;;;;;;4894384;28;86899;-84
2021/06/23 12:33:12;;;;;;;5.70;5.50;;;42.50;36.30;;;;;;4895486;28;87402;-84
2021/06/23 12:35:39;;;;;;;5.50;5.20;;;42.50;36.20;;;;;;4894476;28;88585;-82
2021/06/23 12:38:10;;;;;;;5.78;5.38;;;42.30;36.60;;;;;;4893326;28;87854;-82
2021/06/23 12:40:37;;;;;;;5.15;4.95;;;42.40;36.70;;;;;;4892626;28;87034;-82
2021/06/23 12:43:09;;;;;;;5.72;5.43;;;42.50;36.00;;;;;;4894191;28;86933;-83
2021/06/23 12:45:35;;;;;;;5.93;5.53;;;42.50;35.90;;;;;;4881655;28;87781;-82
2021/06/23 12:48:05;;;;;;;5.40;5.20;;;42.20;35.60;;;;;;4892901;28;86923;-82
2021/06/23 12:50:31;;;;;;;5.03;4.82;;;42.00;36.10;;;;;;4886128;28;87282;-83
2021/06/23 12:52:57;;;;;;;5.70;5.40;;;41.80;36.80;;;;;;4891485;28;86258;-83
2021/06/23 12:55:22;;;;;;;5.47;5.22;;;42.00;37.20;;;;;;4880940;28;87176;-83
2021/06/23 12:57:48;;;;;;;5.90;5.60;;;42.40;37.30;;;;;;4890729;28;86315;-82
2021/06/23 13:00:16;;;;;;;5.30;5.07;;;42.30;36.50;;;;;;4889730;28;87772;-82
2021/06/23 13:02:44;;;;;;;5.57;5.28;;;41.80;37.00;;;;;;4889004;28;87039;-81
2021/06/23 13:05:12;;;;;;;5.70;5.40;;;41.40;37.00;;;;;;4889290;28;87615;-82
2021/06/23 13:07:38;;;;;;;5.40;5.10;;;41.00;37.00;;;;;;4895017;28;90028;-81
2021/06/23 13:10:05;;;;;;;5.30;5.00;;;40.30;38.10;;;;;;4896198;28;86966;-82
2021/06/23 13:12:33;;;;;;;5.38;5.07;;;39.60;38.40;;;;;;4898457;28;86482;-82
2021/06/23 13:15:00;;;;;;;4.88;4.57;;;38.40;40.50;;;;;;4896159;28;87105;-82
2021/06/23 13:17:27;;;;;;;4.90;4.60;;;37.80;41.10;;;;;;4895426;28;86413;-81
2021/06/23 13:19:52;;;;;;;4.75;4.55;;;37.40;41.60;;;;;;4895622;28;87000;-82
2021/06/23 13:22:18;;;;;;;4.80;4.50;;;37.60;41.70;;;;;;4898349;28;87107;-81
2021/06/23 13:24:44;;;;;;;4.85;4.53;;;37.40;41.90;;;;;;4894774;28;88228;-81
2021/06/23 13:27:10;;;;;;;5.03;4.72;;;37.50;42.00;;;;;;4891893;28;88881;-84
2021/06/23 13:29:37;;;;;;;4.70;4.50;;;37.40;41.50;;;;;;4897524;28;86828;-82
2021/06/23 13:32:06;;;;;;;5.03;4.70;;;37.30;41.40;;;;;;4894498;28;86659;-81
2021/06/23 13:34:33;;;;;;;4.70;4.50;;;36.50;42.10;;;;;;4895968;28;88384;-80
2021/06/23 13:37:00;;;;;;;4.70;4.35;;;36.10;42.80;;;;;;4896785;28;87832;-81
2021/06/23 13:39:25;;;;;;;4.88;4.60;;;35.40;44.20;;;;;;4895028;28;86843;-82
2021/06/23 13:41:51;;;;;;;4.70;4.43;;;35.40;43.90;;;;;;4899087;28;86105;-81
2021/06/23 13:44:17;;;;;;;4.78;4.50;;;35.30;44.70;;;;;;4896515;28;88277;-81
2021/06/23 13:46:42;;;;;;;4.38;4.18;;;35.30;44.90;;;;;;4896109;28;86968;-82
2021/06/23 13:49:08;;;;;;;4.60;4.30;;;35.40;44.10;;;;;;4894256;28;87947;-80
2021/06/23 13:51:34;;;;;;;4.70;4.30;;;34.80;45.10;;;;;;4896312;28;86466;-80
2021/06/23 13:54:00;;;;;;;4.40;4.10;;;34.60;45.40;;;;;;4895232;28;87665;-81
2021/06/23 13:56:28;;;;;;;4.22;3.97;;;34.40;45.90;;;;;;4898576;28;86906;-81
2021/06/23 13:58:54;;;;;;;4.15;3.95;;;34.30;45.80;;;;;;4897018;28;86988;-82
2021/06/23 14:01:20;;;;;;;4.78;3.72;;;33.90;46.70;;;;;;4897457;28;86955;-82
2021/06/23 14:03:46;;;;;;;4.50;4.20;;;33.60;46.90;;;;;;4894841;28;87105;-81
2021/06/23 14:06:11;;;;;;;4.78;4.32;;;33.50;47.40;;;;;;4897810;28;86404;-81
2021/06/23 14:08:37;;;;;;;5.03;4.13;;;32.90;47.20;;;;;;4897685;28;87098;-80
2021/06/23 14:11:03;;;;;;;4.35;4.15;;;32.10;48.70;;;;;;4898111;28;86913;-82
2021/06/23 14:13:29;;;;;;;4.40;4.20;;;32.00;49.60;;;;;;4899389;28;88588;-82
2021/06/23 14:15:55;;;;;;;4.75;4.35;;;31.90;49.80;;;;;;4899407;28;87958;-81
2021/06/23 14:18:20;;;;;;;4.20;4.00;;;31.80;49.50;;;;;;4896427;28;86931;-84
2021/06/23 14:20:46;;;;;;;4.18;3.90;;;31.40;50.60;;;;;;4899442;28;87054;-83
2021/06/23 14:23:12;;;;;;;4.47;4.10;;;31.30;50.90;;;;;;4899873;28;86509;-84
2021/06/23 14:25:38;;;;;;;4.85;4.45;;;31.40;51.00;;;;;;4899057;28;87051;-83
2021/06/23 14:28:04;;;;;;;4.32;4.03;;;31.40;51.00;;;;;;4899541;28;86675;-82
2021/06/23 14:30:30;;;;;;;4.00;3.80;;;31.30;51.00;;;;;;4904776;28;85882;-82
2021/06/23 14:32:56;;;;;;;4.78;4.38;;;31.30;51.20;;;;;;4898453;28;87359;-81
2021/06/23 14:35:23;;;;;;;4.00;3.70;;;31.10;51.30;;;;;;4903474;28;87050;-82
2021/06/23 14:37:50;;;;;;;4.20;4.00;;;31.00;51.60;;;;;;4904363;28;88133;-82
2021/06/23 14:40:17;;;;;;;4.50;4.30;;;31.00;51.80;;;;;;4903182;28;86798;-83
2021/06/23 14:42:43;;;;;;;4.32;4.13;;;30.90;52.00;;;;;;4895281;28;88310;-83
2021/06/23 14:45:10;;;;;;;4.05;3.78;;;30.70;52.50;;;;;;4896640;28;86923;-84
2021/06/23 14:47:35;;;;;;;4.50;4.10;;;30.50;52.70;;;;;;4894105;28;86602;-83
2021/06/23 14:50:03;;;;;;;3.65;3.55;;;30.30;53.00;;;;;;4890662;28;86710;-82
2021/06/23 14:52:29;;;;;;;3.70;3.50;;;30.30;54.50;;;;;;4893208;28;90056;-83
2021/06/23 14:54:54;;;;;;;4.60;4.30;;;30.20;54.40;;;;;;4892487;28;86897;-83
2021/06/23 14:57:20;;;;;;;4.70;4.10;;;30.10;54.70;;;;;;4901890;28;86094;-83
2021/06/23 14:59:46;;;;;;;4.60;4.20;;;30.10;54.60;;;;;;4901266;28;86288;-83
2021/06/23 15:02:12;;;;;;;4.43;4.13;;;30.10;54.20;;;;;;4901035;28;87834;-84
2021/06/23 15:04:37;;;;;;;4.90;4.28;;;30.00;54.80;;;;;;4898408;28;87832;-83
2021/06/23 15:07:03;;;;;;;4.45;4.15;;;29.90;55.00;;;;;;4881750;28;86681;-83
2021/06/23 15:09:29;;;;;;;3.80;3.60;;;29.80;54.50;;;;;;4882627;28;87003;-83
2021/06/23 15:11:55;;;;;;;4.60;4.30;;;29.60;54.70;;;;;;4896529;28;87127;-82
2021/06/23 15:14:21;;;;;;;5.15;4.30;;;29.50;54.40;;;;;;4878899;28;86571;-82
2021/06/23 15:16:46;;;;;;;4.07;3.85;;;29.50;55.10;;;;;;4896680;28;86755;-82
2021/06/23 15:19:12;;;;;;;4.30;4.10;;;29.40;55.40;;;;;;4899350;28;85726;-82
2021/06/23 15:21:39;;;;;;;4.18;3.97;;;29.30;55.70;;;;;;4903096;28;86456;-82
2021/06/23 15:24:05;;;;;;;4.85;4.35;;;29.20;56.30;;;;;;4897988;28;87057;-82
2021/06/23 15:26:32;;;;;;;4.57;4.28;;;29.30;56.70;;;;;;4898473;28;87659;-84
2021/06/23 15:28:57;;;;;;;4.13;3.83;;;29.30;55.80;;;;;;4897894;28;86366;-83
2021/06/23 15:31:23;;;;;;;4.30;4.00;;;29.30;55.90;;;;;;4886065;28;87509;-83
2021/06/23 15:33:49;;;;;;;4.22;4.03;;;29.20;56.10;;;;;;4883407;28;87349;-83
2021/06/23 15:36:14;;;;;;;4.60;4.15;;;29.10;56.30;;;;;;4893222;28;86917;-83
2021/06/23 15:38:42;;;;;;;3.90;3.70;;;28.90;56.50;;;;;;4889860;28;86927;-83
2021/06/23 15:41:11;;;;;;;4.00;3.70;;;29.00;57.20;;;;;;4880158;28;86708;-84
2021/06/23 15:43:38;;;;;;;4.20;3.90;;;29.00;56.90;;;;;;4886136;28;86403;-83
2021/06/23 15:46:04;;;;;;;4.70;4.40;;;28.60;56.50;;;;;;4896550;28;86145;-81
2021/06/23 15:48:30;;;;;;;4.38;4.00;;;28.50;56.90;;;;;;4887030;28;87019;-81
2021/06/23 15:50:56;;;;;;;4.20;3.80;;;28.30;58.10;;;;;;4895559;28;91743;-81
2021/06/23 15:53:22;;;;;;;4.60;4.30;;;28.20;58.50;;;;;;4887139;28;87827;-82
2021/06/23 15:55:48;;;;;;;3.88;3.67;;;28.10;59.20;;;;;;4880757;28;86921;-83
2021/06/23 15:58:22;;;;;;;4.25;3.95;;;27.90;58.20;;;;;;4873300;28;87071;-81
2021/06/23 16:00:49;;;;;;;4.40;4.10;;;27.80;59.60;;;;;;4875315;28;87226;-81
2021/06/23 16:03:15;;;;;;;4.47;4.18;;;27.70;58.70;;;;;;4879723;28;87038;-81
2021/06/23 16:05:41;;;;;;;4.13;3.92;;;27.70;59.00;;;;;;4891255;28;87098;-83
2021/06/23 16:08:07;;;;;;;4.45;4.10;;;27.60;60.10;;;;;;4893122;28;85723;-82
2021/06/23 16:10:33;;;;;;;5.00;4.70;;;27.50;60.00;;;;;;4892250;28;88045;-83
2021/06/23 16:12:59;;;;;;;5.07;4.55;;;27.30;59.40;;;;;;4894177;28;88343;-85
2021/06/23 16:15:25;;;;;;;4.40;4.00;;;27.30;60.00;;;;;;4896034;28;87908;-84